sensor_id;sensor_type;location;lat;lon;timestamp;temperature;humidity
67027;DHT22;53933;52.142;11.738;2022-09-09T00:02:28;24.90;60.20
67027;DHT22;53933;52.142;11.738;2022-09-09T00:04:59;24.90;60.60
67027;DHT22;53933;52.142;11.738;2022-09-09T00:07:36;25.00;60.50
67027;DHT22;53933;52.142;11.738;2022-09-09T00:10:16;25.00;60.10
67027;DHT22;53933;52.142;11.738;2022-09-09T00:12:53;25.10;59.80
67027;DHT22;53933;52.142;11.738;2022-09-09T00:15:25;25.10;59.60
67027;DHT22;53933;52.142;11.738;2022-09-09T00:17:58;25.10;59.50
67027;DHT22;53933;52.142;11.738;2022-09-09T00:20:32;25.00;59.60
67027;DHT22;53933;52.142;11.738;2022-09-09T00:23:09;25.00;59.60
67027;DHT22;53933;52.142;11.738;2022-09-09T00:25:42;25.00;59.40
67027;DHT22;53933;52.142;11.738;2022-09-09T00:28:17;24.90;59.50
67027;DHT22;53933;52.142;11.738;2022-09-09T00:30:46;25.00;59.60
67027;DHT22;53933;52.142;11.738;2022-09-09T00:33:17;25.00;59.30
67027;DHT22;53933;52.142;11.738;2022-09-09T00:35:48;25.10;59.10
67027;DHT22;53933;52.142;11.738;2022-09-09T00:38:19;25.10;58.90
67027;DHT22;53933;52.142;11.738;2022-09-09T00:40:51;25.20;58.70
67027;DHT22;53933;52.142;11.738;2022-09-09T00:43:36;25.20;58.50
67027;DHT22;53933;52.142;11.738;2022-09-09T00:46:27;25.20;58.40
67027;DHT22;53933;52.142;11.738;2022-09-09T00:49:07;25.20;58.20
67027;DHT22;53933;52.142;11.738;2022-09-09T00:51:46;25.20;58.30
67027;DHT22;53933;52.142;11.738;2022-09-09T00:54:28;25.10;58.30
67027;DHT22;53933;52.142;11.738;2022-09-09T00:57:07;25.00;58.50
67027;DHT22;53933;52.142;11.738;2022-09-09T00:59:46;25.10;58.50
67027;DHT22;53933;52.142;11.738;2022-09-09T01:02:19;25.00;58.40
67027;DHT22;53933;52.142;11.738;2022-09-09T01:04:49;25.10;58.50
67027;DHT22;53933;52.142;11.738;2022-09-09T01:07:18;25.00;58.40
67027;DHT22;53933;52.142;11.738;2022-09-09T01:09:51;25.00;58.50
67027;DHT22;53933;52.142;11.738;2022-09-09T01:12:34;25.00;58.50
67027;DHT22;53933;52.142;11.738;2022-09-09T01:15:09;25.00;58.70
67027;DHT22;53933;52.142;11.738;2022-09-09T01:17:46;25.00;58.50
67027;DHT22;53933;52.142;11.738;2022-09-09T01:20:20;25.00;58.50
67027;DHT22;53933;52.142;11.738;2022-09-09T01:23:01;24.90;58.30
67027;DHT22;53933;52.142;11.738;2022-09-09T01:26:06;24.90;58.50
67027;DHT22;53933;52.142;11.738;2022-09-09T01:28:34;24.90;58.60
67027;DHT22;53933;52.142;11.738;2022-09-09T01:31:03;24.90;58.50
67027;DHT22;53933;52.142;11.738;2022-09-09T01:33:32;24.90;58.30
67027;DHT22;53933;52.142;11.738;2022-09-09T01:36:03;24.90;58.30
67027;DHT22;53933;52.142;11.738;2022-09-09T01:38:33;24.80;58.40
67027;DHT22;53933;52.142;11.738;2022-09-09T01:41:01;24.80;58.40
67027;DHT22;53933;52.142;11.738;2022-09-09T01:43:29;24.90;58.30
67027;DHT22;53933;52.142;11.738;2022-09-09T01:45:59;24.90;58.30
67027;DHT22;53933;52.142;11.738;2022-09-09T01:48:27;24.80;58.40
67027;DHT22;53933;52.142;11.738;2022-09-09T01:50:54;24.70;58.50
67027;DHT22;53933;52.142;11.738;2022-09-09T01:53:22;24.60;59.00
67027;DHT22;53933;52.142;11.738;2022-09-09T01:56:02;24.60;59.00
67027;DHT22;53933;52.142;11.738;2022-09-09T01:58:44;24.70;59.00
67027;DHT22;53933;52.142;11.738;2022-09-09T02:01:20;24.70;58.60
67027;DHT22;53933;52.142;11.738;2022-09-09T02:03:52;24.80;58.50
67027;DHT22;53933;52.142;11.738;2022-09-09T02:06:26;24.80;58.30
67027;DHT22;53933;52.142;11.738;2022-09-09T02:08:56;24.90;58.10
67027;DHT22;53933;52.142;11.738;2022-09-09T02:11:27;24.90;57.90
67027;DHT22;53933;52.142;11.738;2022-09-09T02:14:00;24.80;57.90
67027;DHT22;53933;52.142;11.738;2022-09-09T02:16:31;24.70;58.00
67027;DHT22;53933;52.142;11.738;2022-09-09T02:19:01;24.70;58.00
67027;DHT22;53933;52.142;11.738;2022-09-09T02:21:31;24.70;58.10
67027;DHT22;53933;52.142;11.738;2022-09-09T02:24:03;24.80;58.10
67027;DHT22;53933;52.142;11.738;2022-09-09T02:26:34;24.80;58.00
67027;DHT22;53933;52.142;11.738;2022-09-09T02:29:06;24.70;58.00
67027;DHT22;53933;52.142;11.738;2022-09-09T02:31:34;24.80;57.90
67027;DHT22;53933;52.142;11.738;2022-09-09T02:34:04;24.70;57.90
67027;DHT22;53933;52.142;11.738;2022-09-09T02:36:33;24.70;57.90
67027;DHT22;53933;52.142;11.738;2022-09-09T02:39:02;24.70;58.00
67027;DHT22;53933;52.142;11.738;2022-09-09T02:41:33;24.60;58.10
67027;DHT22;53933;52.142;11.738;2022-09-09T02:44:00;24.70;58.10
67027;DHT22;53933;52.142;11.738;2022-09-09T02:46:37;24.70;58.00
67027;DHT22;53933;52.142;11.738;2022-09-09T02:49:11;24.70;58.00
67027;DHT22;53933;52.142;11.738;2022-09-09T02:51:48;24.60;58.00
67027;DHT22;53933;52.142;11.738;2022-09-09T02:54:26;24.70;58.00
67027;DHT22;53933;52.142;11.738;2022-09-09T02:57:01;24.60;58.00
67027;DHT22;53933;52.142;11.738;2022-09-09T02:59:30;24.60;58.10
67027;DHT22;53933;52.142;11.738;2022-09-09T03:01:58;24.60;58.10
67027;DHT22;53933;52.142;11.738;2022-09-09T03:04:25;24.60;57.90
67027;DHT22;53933;52.142;11.738;2022-09-09T03:06:51;24.60;58.00
67027;DHT22;53933;52.142;11.738;2022-09-09T03:09:18;24.60;57.80
67027;DHT22;53933;52.142;11.738;2022-09-09T03:11:45;24.60;57.70
67027;DHT22;53933;52.142;11.738;2022-09-09T03:14:12;24.60;57.80
67027;DHT22;53933;52.142;11.738;2022-09-09T03:16:39;24.70;57.90
67027;DHT22;53933;52.142;11.738;2022-09-09T03:19:07;24.70;57.80
67027;DHT22;53933;52.142;11.738;2022-09-09T03:21:33;24.70;57.60
67027;DHT22;53933;52.142;11.738;2022-09-09T03:24:01;24.70;57.40
67027;DHT22;53933;52.142;11.738;2022-09-09T03:26:29;24.60;57.60
67027;DHT22;53933;52.142;11.738;2022-09-09T03:28:55;24.50;57.60
67027;DHT22;53933;52.142;11.738;2022-09-09T03:31:22;24.30;57.90
67027;DHT22;53933;52.142;11.738;2022-09-09T03:33:49;24.30;58.10
67027;DHT22;53933;52.142;11.738;2022-09-09T03:36:17;24.30;58.20
67027;DHT22;53933;52.142;11.738;2022-09-09T03:38:44;24.20;58.30
67027;DHT22;53933;52.142;11.738;2022-09-09T03:41:10;24.30;58.20
67027;DHT22;53933;52.142;11.738;2022-09-09T03:43:38;24.30;58.10
67027;DHT22;53933;52.142;11.738;2022-09-09T03:46:05;24.20;58.10
67027;DHT22;53933;52.142;11.738;2022-09-09T03:48:32;24.20;58.20
67027;DHT22;53933;52.142;11.738;2022-09-09T03:50:58;24.30;58.20
67027;DHT22;53933;52.142;11.738;2022-09-09T03:53:28;24.30;57.90
67027;DHT22;53933;52.142;11.738;2022-09-09T03:55:56;24.30;57.80
67027;DHT22;53933;52.142;11.738;2022-09-09T03:58:26;24.30;57.70
67027;DHT22;53933;52.142;11.738;2022-09-09T04:00:54;24.30;57.90
67027;DHT22;53933;52.142;11.738;2022-09-09T04:03:21;24.30;58.00
67027;DHT22;53933;52.142;11.738;2022-09-09T04:05:50;24.40;57.90
67027;DHT22;53933;52.142;11.738;2022-09-09T04:08:17;24.30;57.90
67027;DHT22;53933;52.142;11.738;2022-09-09T04:10:46;24.30;58.00
67027;DHT22;53933;52.142;11.738;2022-09-09T04:13:13;24.30;57.90
67027;DHT22;53933;52.142;11.738;2022-09-09T04:15:42;24.30;58.00
67027;DHT22;53933;52.142;11.738;2022-09-09T04:18:09;24.30;58.70
67027;DHT22;53933;52.142;11.738;2022-09-09T04:20:36;24.30;57.80
67027;DHT22;53933;52.142;11.738;2022-09-09T04:23:03;24.20;57.80
67027;DHT22;53933;52.142;11.738;2022-09-09T04:25:29;24.20;58.30
67027;DHT22;53933;52.142;11.738;2022-09-09T04:27:58;24.20;58.30
67027;DHT22;53933;52.142;11.738;2022-09-09T04:30:25;24.10;58.30
67027;DHT22;53933;52.142;11.738;2022-09-09T04:32:52;24.00;58.40
67027;DHT22;53933;52.142;11.738;2022-09-09T04:35:19;24.10;58.60
67027;DHT22;53933;52.142;11.738;2022-09-09T04:37:46;24.00;58.40
67027;DHT22;53933;52.142;11.738;2022-09-09T04:40:13;24.10;58.50
67027;DHT22;53933;52.142;11.738;2022-09-09T04:42:40;24.00;58.50
67027;DHT22;53933;52.142;11.738;2022-09-09T04:45:10;24.00;58.60
67027;DHT22;53933;52.142;11.738;2022-09-09T04:47:38;24.00;58.50
67027;DHT22;53933;52.142;11.738;2022-09-09T04:50:06;23.90;58.60
67027;DHT22;53933;52.142;11.738;2022-09-09T04:52:34;23.90;58.70
67027;DHT22;53933;52.142;11.738;2022-09-09T04:55:00;23.80;58.80
67027;DHT22;53933;52.142;11.738;2022-09-09T04:57:28;23.70;58.90
67027;DHT22;53933;52.142;11.738;2022-09-09T04:59:57;23.80;59.20
67027;DHT22;53933;52.142;11.738;2022-09-09T05:02:25;23.70;59.30
67027;DHT22;53933;52.142;11.738;2022-09-09T05:04:51;23.70;59.30
67027;DHT22;53933;52.142;11.738;2022-09-09T05:07:18;23.70;59.50
67027;DHT22;53933;52.142;11.738;2022-09-09T05:09:45;23.70;59.40
67027;DHT22;53933;52.142;11.738;2022-09-09T05:12:13;23.50;60.40
67027;DHT22;53933;52.142;11.738;2022-09-09T05:14:40;23.40;62.40
67027;DHT22;53933;52.142;11.738;2022-09-09T05:17:06;23.30;62.80
67027;DHT22;53933;52.142;11.738;2022-09-09T05:19:34;23.10;63.60
67027;DHT22;53933;52.142;11.738;2022-09-09T05:22:00;23.10;63.70
67027;DHT22;53933;52.142;11.738;2022-09-09T05:24:27;23.00;63.20
67027;DHT22;53933;52.142;11.738;2022-09-09T05:26:54;22.70;63.70
67027;DHT22;53933;52.142;11.738;2022-09-09T05:29:25;22.40;65.30
67027;DHT22;53933;52.142;11.738;2022-09-09T05:31:52;22.40;65.70
67027;DHT22;53933;52.142;11.738;2022-09-09T05:34:18;22.40;65.60
67027;DHT22;53933;52.142;11.738;2022-09-09T05:36:47;22.50;65.60
67027;DHT22;53933;52.142;11.738;2022-09-09T05:39:13;22.60;69.60
67027;DHT22;53933;52.142;11.738;2022-09-09T05:41:40;22.70;68.40
67027;DHT22;53933;52.142;11.738;2022-09-09T05:44:07;22.80;67.40
67027;DHT22;53933;52.142;11.738;2022-09-09T05:46:33;23.00;66.70
67027;DHT22;53933;52.142;11.738;2022-09-09T05:49:01;22.90;65.40
67027;DHT22;53933;52.142;11.738;2022-09-09T05:51:28;22.70;65.90
67027;DHT22;53933;52.142;11.738;2022-09-09T05:53:57;22.80;67.30
67027;DHT22;53933;52.142;11.738;2022-09-09T05:56:26;22.70;66.30
67027;DHT22;53933;52.142;11.738;2022-09-09T05:58:54;22.60;66.30
67027;DHT22;53933;52.142;11.738;2022-09-09T06:01:22;22.50;66.90
67027;DHT22;53933;52.142;11.738;2022-09-09T06:03:50;22.60;66.80
67027;DHT22;53933;52.142;11.738;2022-09-09T06:06:18;22.50;66.60
67027;DHT22;53933;52.142;11.738;2022-09-09T06:08:46;22.50;66.60
67027;DHT22;53933;52.142;11.738;2022-09-09T06:11:16;22.60;67.00
67027;DHT22;53933;52.142;11.738;2022-09-09T06:13:43;22.60;66.60
67027;DHT22;53933;52.142;11.738;2022-09-09T06:16:12;22.50;66.90
67027;DHT22;53933;52.142;11.738;2022-09-09T06:18:40;22.60;66.70
67027;DHT22;53933;52.142;11.738;2022-09-09T06:21:12;22.60;66.60
67027;DHT22;53933;52.142;11.738;2022-09-09T06:23:39;22.70;66.20
67027;DHT22;53933;52.142;11.738;2022-09-09T06:26:09;22.60;66.50
67027;DHT22;53933;52.142;11.738;2022-09-09T06:28:37;22.60;66.30
67027;DHT22;53933;52.142;11.738;2022-09-09T06:31:05;22.50;66.10
67027;DHT22;53933;52.142;11.738;2022-09-09T06:33:34;22.50;66.80
67027;DHT22;53933;52.142;11.738;2022-09-09T06:36:02;22.50;66.50
67027;DHT22;53933;52.142;11.738;2022-09-09T06:38:30;22.70;66.30
67027;DHT22;53933;52.142;11.738;2022-09-09T06:40:59;22.80;65.80
67027;DHT22;53933;52.142;11.738;2022-09-09T06:43:26;22.70;65.70
67027;DHT22;53933;52.142;11.738;2022-09-09T06:45:55;22.80;66.20
67027;DHT22;53933;52.142;11.738;2022-09-09T06:48:22;22.80;65.80
67027;DHT22;53933;52.142;11.738;2022-09-09T06:50:48;22.70;66.00
67027;DHT22;53933;52.142;11.738;2022-09-09T06:53:16;22.60;66.50
67027;DHT22;53933;52.142;11.738;2022-09-09T06:55:44;22.60;66.90
67027;DHT22;53933;52.142;11.738;2022-09-09T06:58:11;22.70;66.50
67027;DHT22;53933;52.142;11.738;2022-09-09T07:00:37;22.80;66.30
67027;DHT22;53933;52.142;11.738;2022-09-09T07:03:05;22.90;65.80
67027;DHT22;53933;52.142;11.738;2022-09-09T07:05:32;23.00;65.80
67027;DHT22;53933;52.142;11.738;2022-09-09T07:07:59;23.00;65.70
67027;DHT22;53933;52.142;11.738;2022-09-09T07:10:26;23.00;65.80
67027;DHT22;53933;52.142;11.738;2022-09-09T07:12:52;23.00;65.80
67027;DHT22;53933;52.142;11.738;2022-09-09T07:15:20;23.10;65.50
67027;DHT22;53933;52.142;11.738;2022-09-09T07:17:46;23.20;65.60
67027;DHT22;53933;52.142;11.738;2022-09-09T07:20:15;23.30;65.20
67027;DHT22;53933;52.142;11.738;2022-09-09T07:22:41;23.40;65.30
67027;DHT22;53933;52.142;11.738;2022-09-09T07:25:08;23.70;64.70
67027;DHT22;53933;52.142;11.738;2022-09-09T07:27:35;24.00;63.90
67027;DHT22;53933;52.142;11.738;2022-09-09T07:30:02;24.20;62.40
67027;DHT22;53933;52.142;11.738;2022-09-09T07:32:29;24.20;62.70
67027;DHT22;53933;52.142;11.738;2022-09-09T07:34:56;24.20;62.80
67027;DHT22;53933;52.142;11.738;2022-09-09T07:37:24;24.20;62.90
67027;DHT22;53933;52.142;11.738;2022-09-09T07:39:51;24.10;63.10
67027;DHT22;53933;52.142;11.738;2022-09-09T07:42:18;24.00;63.50
67027;DHT22;53933;52.142;11.738;2022-09-09T07:44:44;24.10;63.40
67027;DHT22;53933;52.142;11.738;2022-09-09T07:47:11;23.90;63.90
67027;DHT22;53933;52.142;11.738;2022-09-09T07:49:38;23.90;64.00
67027;DHT22;53933;52.142;11.738;2022-09-09T07:52:05;24.00;64.10
67027;DHT22;53933;52.142;11.738;2022-09-09T07:54:33;24.10;64.00
67027;DHT22;53933;52.142;11.738;2022-09-09T07:56:59;24.40;63.20
67027;DHT22;53933;52.142;11.738;2022-09-09T07:59:26;24.70;62.70
67027;DHT22;53933;52.142;11.738;2022-09-09T08:01:55;25.00;62.00
67027;DHT22;53933;52.142;11.738;2022-09-09T08:04:23;25.40;61.50
67027;DHT22;53933;52.142;11.738;2022-09-09T08:06:52;25.80;60.70
67027;DHT22;53933;52.142;11.738;2022-09-09T08:09:19;26.00;59.20
67027;DHT22;53933;52.142;11.738;2022-09-09T08:11:47;26.10;58.70
67027;DHT22;53933;52.142;11.738;2022-09-09T08:14:14;26.20;58.30
67027;DHT22;53933;52.142;11.738;2022-09-09T08:16:44;26.10;58.10
67027;DHT22;53933;52.142;11.738;2022-09-09T08:19:11;25.90;58.20
67027;DHT22;53933;52.142;11.738;2022-09-09T08:21:40;25.80;58.40
67027;DHT22;53933;52.142;11.738;2022-09-09T08:24:07;25.80;58.40
67027;DHT22;53933;52.142;11.738;2022-09-09T08:26:37;25.90;58.40
67027;DHT22;53933;52.142;11.738;2022-09-09T08:29:07;25.80;58.50
67027;DHT22;53933;52.142;11.738;2022-09-09T08:31:36;25.90;58.50
67027;DHT22;53933;52.142;11.738;2022-09-09T08:34:04;26.20;57.90
67027;DHT22;53933;52.142;11.738;2022-09-09T08:36:33;26.60;57.60
67027;DHT22;53933;52.142;11.738;2022-09-09T08:39:02;26.90;57.00
67027;DHT22;53933;52.142;11.738;2022-09-09T08:41:38;27.10;56.30
67027;DHT22;53933;52.142;11.738;2022-09-09T08:44:12;27.50;55.60
67027;DHT22;53933;52.142;11.738;2022-09-09T08:46:48;27.90;54.80
67027;DHT22;53933;52.142;11.738;2022-09-09T08:49:35;28.10;53.90
67027;DHT22;53933;52.142;11.738;2022-09-09T08:52:12;28.30;53.40
67027;DHT22;53933;52.142;11.738;2022-09-09T08:54:41;28.60;53.10
67027;DHT22;53933;52.142;11.738;2022-09-09T08:57:11;29.00;52.20
67027;DHT22;53933;52.142;11.738;2022-09-09T08:59:41;29.00;51.80
67027;DHT22;53933;52.142;11.738;2022-09-09T09:02:15;29.30;51.60
67027;DHT22;53933;52.142;11.738;2022-09-09T09:04:52;29.80;51.00
67027;DHT22;53933;52.142;11.738;2022-09-09T09:07:28;29.70;50.80
67027;DHT22;53933;52.142;11.738;2022-09-09T09:10:04;29.50;51.10
67027;DHT22;53933;52.142;11.738;2022-09-09T09:12:38;29.70;50.90
67027;DHT22;53933;52.142;11.738;2022-09-09T09:15:11;30.10;50.30
67027;DHT22;53933;52.142;11.738;2022-09-09T09:17:41;30.40;49.40
67027;DHT22;53933;52.142;11.738;2022-09-09T09:20:12;30.70;49.20
67027;DHT22;53933;52.142;11.738;2022-09-09T09:22:45;31.00;48.50
67027;DHT22;53933;52.142;11.738;2022-09-09T09:25:16;31.20;48.20
67027;DHT22;53933;52.142;11.738;2022-09-09T09:27:49;31.40;47.40
67027;DHT22;53933;52.142;11.738;2022-09-09T09:30:20;31.60;47.50
67027;DHT22;53933;52.142;11.738;2022-09-09T09:32:53;31.60;47.00
67027;DHT22;53933;52.142;11.738;2022-09-09T09:35:20;31.90;46.80
67027;DHT22;53933;52.142;11.738;2022-09-09T09:37:47;32.10;46.50
67027;DHT22;53933;52.142;11.738;2022-09-09T09:40:16;32.30;46.30
67027;DHT22;53933;52.142;11.738;2022-09-09T09:42:52;31.80;46.60
67027;DHT22;53933;52.142;11.738;2022-09-09T09:45:27;31.80;46.90
67027;DHT22;53933;52.142;11.738;2022-09-09T09:47:58;31.90;46.90
67027;DHT22;53933;52.142;11.738;2022-09-09T09:50:25;32.00;46.60
67027;DHT22;53933;52.142;11.738;2022-09-09T09:52:56;31.90;46.50
67027;DHT22;53933;52.142;11.738;2022-09-09T09:55:23;32.20;46.20
67027;DHT22;53933;52.142;11.738;2022-09-09T09:57:50;32.20;46.10
67027;DHT22;53933;52.142;11.738;2022-09-09T10:00:20;32.10;46.30
67027;DHT22;53933;52.142;11.738;2022-09-09T10:02:49;32.00;46.50
67027;DHT22;53933;52.142;11.738;2022-09-09T10:05:19;32.20;46.00
67027;DHT22;53933;52.142;11.738;2022-09-09T10:07:47;32.40;45.80
67027;DHT22;53933;52.142;11.738;2022-09-09T10:10:34;32.40;45.70
67027;DHT22;53933;52.142;11.738;2022-09-09T10:13:10;31.70;46.40
67027;DHT22;53933;52.142;11.738;2022-09-09T10:15:43;31.40;47.10
67027;DHT22;53933;52.142;11.738;2022-09-09T10:18:30;31.10;47.60
67027;DHT22;53933;52.142;11.738;2022-09-09T10:21:06;30.80;47.90
67027;DHT22;53933;52.142;11.738;2022-09-09T10:23:46;30.80;48.30
67027;DHT22;53933;52.142;11.738;2022-09-09T10:26:29;31.10;47.80
67027;DHT22;53933;52.142;11.738;2022-09-09T10:29:22;31.40;47.60
67027;DHT22;53933;52.142;11.738;2022-09-09T10:32:00;31.50;47.20
67027;DHT22;53933;52.142;11.738;2022-09-09T10:34:52;31.60;46.90
67027;DHT22;53933;52.142;11.738;2022-09-09T10:37:30;31.50;46.50
67027;DHT22;53933;52.142;11.738;2022-09-09T10:40:19;31.20;46.70
67027;DHT22;53933;52.142;11.738;2022-09-09T10:42:48;31.00;47.30
67027;DHT22;53933;52.142;11.738;2022-09-09T10:45:18;30.70;47.80
67027;DHT22;53933;52.142;11.738;2022-09-09T10:48:08;30.50;48.30
67027;DHT22;53933;52.142;11.738;2022-09-09T10:50:48;30.20;48.70
67027;DHT22;53933;52.142;11.738;2022-09-09T10:53:25;30.00;49.20
67027;DHT22;53933;52.142;11.738;2022-09-09T10:55:58;29.80;49.50
67027;DHT22;53933;52.142;11.738;2022-09-09T10:58:30;29.90;49.70
67027;DHT22;53933;52.142;11.738;2022-09-09T11:01:03;29.90;49.80
67027;DHT22;53933;52.142;11.738;2022-09-09T11:03:34;30.00;49.90
67027;DHT22;53933;52.142;11.738;2022-09-09T11:06:05;29.90;50.10
67027;DHT22;53933;52.142;11.738;2022-09-09T11:08:35;29.90;50.20
67027;DHT22;53933;52.142;11.738;2022-09-09T11:11:03;29.90;50.20
67027;DHT22;53933;52.142;11.738;2022-09-09T11:13:35;30.00;50.40
67027;DHT22;53933;52.142;11.738;2022-09-09T11:16:16;29.90;50.20
67027;DHT22;53933;52.142;11.738;2022-09-09T11:18:46;29.80;50.40
67027;DHT22;53933;52.142;11.738;2022-09-09T11:21:18;29.80;50.40
67027;DHT22;53933;52.142;11.738;2022-09-09T11:23:50;29.80;50.50
67027;DHT22;53933;52.142;11.738;2022-09-09T11:26:31;29.70;50.60
67027;DHT22;53933;52.142;11.738;2022-09-09T11:29:13;29.80;50.60
67027;DHT22;53933;52.142;11.738;2022-09-09T11:31:49;29.70;50.40
67027;DHT22;53933;52.142;11.738;2022-09-09T11:34:35;29.60;49.70
67027;DHT22;53933;52.142;11.738;2022-09-09T11:37:17;29.60;49.60
67027;DHT22;53933;52.142;11.738;2022-09-09T11:40:08;29.40;49.70
67027;DHT22;53933;52.142;11.738;2022-09-09T11:42:35;29.40;49.40
67027;DHT22;53933;52.142;11.738;2022-09-09T11:45:19;29.30;49.40
67027;DHT22;53933;52.142;11.738;2022-09-09T11:47:52;29.30;49.90
67027;DHT22;53933;52.142;11.738;2022-09-09T11:50:38;29.40;50.10
67027;DHT22;53933;52.142;11.738;2022-09-09T11:53:22;29.50;49.60
67027;DHT22;53933;52.142;11.738;2022-09-09T11:56:05;29.50;49.70
67027;DHT22;53933;52.142;11.738;2022-09-09T11:58:38;29.50;49.80
67027;DHT22;53933;52.142;11.738;2022-09-09T12:01:25;29.50;49.90
67027;DHT22;53933;52.142;11.738;2022-09-09T12:04:01;29.50;49.90
67027;DHT22;53933;52.142;11.738;2022-09-09T12:06:33;29.50;49.90
67027;DHT22;53933;52.142;11.738;2022-09-09T12:09:17;29.40;49.70
67027;DHT22;53933;52.142;11.738;2022-09-09T12:11:44;29.30;49.70
67027;DHT22;53933;52.142;11.738;2022-09-09T12:14:20;29.30;49.60
67027;DHT22;53933;52.142;11.738;2022-09-09T12:16:48;29.30;49.50
67027;DHT22;53933;52.142;11.738;2022-09-09T12:19:18;29.30;49.00
67027;DHT22;53933;52.142;11.738;2022-09-09T12:21:51;29.30;49.30
67027;DHT22;53933;52.142;11.738;2022-09-09T12:24:29;29.20;49.50
67027;DHT22;53933;52.142;11.738;2022-09-09T12:27:02;29.20;49.00
67027;DHT22;53933;52.142;11.738;2022-09-09T12:29:38;29.20;48.60
67027;DHT22;53933;52.142;11.738;2022-09-09T12:32:11;29.20;49.20
67027;DHT22;53933;52.142;11.738;2022-09-09T12:34:41;29.20;48.50
67027;DHT22;53933;52.142;11.738;2022-09-09T12:37:16;29.20;49.30
67027;DHT22;53933;52.142;11.738;2022-09-09T12:39:49;29.20;49.00
67027;DHT22;53933;52.142;11.738;2022-09-09T12:42:18;29.10;47.80
67027;DHT22;53933;52.142;11.738;2022-09-09T12:44:55;29.00;48.00
67027;DHT22;53933;52.142;11.738;2022-09-09T12:47:27;28.90;48.20
67027;DHT22;53933;52.142;11.738;2022-09-09T12:49:55;28.80;48.40
67027;DHT22;53933;52.142;11.738;2022-09-09T12:52:26;28.70;48.60
67027;DHT22;53933;52.142;11.738;2022-09-09T12:54:57;28.70;47.90
67027;DHT22;53933;52.142;11.738;2022-09-09T12:57:26;28.70;48.40
67027;DHT22;53933;52.142;11.738;2022-09-09T13:00:06;28.70;48.40
67027;DHT22;53933;52.142;11.738;2022-09-09T13:02:35;28.80;48.40
67027;DHT22;53933;52.142;11.738;2022-09-09T13:05:15;28.70;48.60
67027;DHT22;53933;52.142;11.738;2022-09-09T13:07:42;28.70;48.60
67027;DHT22;53933;52.142;11.738;2022-09-09T13:10:13;28.70;47.90
67027;DHT22;53933;52.142;11.738;2022-09-09T13:12:40;28.60;48.70
67027;DHT22;53933;52.142;11.738;2022-09-09T13:15:16;28.50;49.00
67027;DHT22;53933;52.142;11.738;2022-09-09T13:17:50;28.50;49.40
67027;DHT22;53933;52.142;11.738;2022-09-09T13:20:19;28.50;49.90
67027;DHT22;53933;52.142;11.738;2022-09-09T13:22:48;28.50;49.50
67027;DHT22;53933;52.142;11.738;2022-09-09T13:25:21;28.50;50.50
67027;DHT22;53933;52.142;11.738;2022-09-09T13:27:57;28.50;50.40
67027;DHT22;53933;52.142;11.738;2022-09-09T13:30:26;28.50;49.90
67027;DHT22;53933;52.142;11.738;2022-09-09T13:33:17;28.50;49.40
67027;DHT22;53933;52.142;11.738;2022-09-09T13:35:47;28.40;49.60
67027;DHT22;53933;52.142;11.738;2022-09-09T13:38:14;28.30;49.50
67027;DHT22;53933;52.142;11.738;2022-09-09T13:40:53;28.30;49.60
67027;DHT22;53933;52.142;11.738;2022-09-09T13:43:22;28.30;49.90
67027;DHT22;53933;52.142;11.738;2022-09-09T13:45:54;28.40;50.90
67027;DHT22;53933;52.142;11.738;2022-09-09T13:48:22;28.30;49.50
67027;DHT22;53933;52.142;11.738;2022-09-09T13:50:57;28.30;50.00
67027;DHT22;53933;52.142;11.738;2022-09-09T13:53:24;28.30;49.70
67027;DHT22;53933;52.142;11.738;2022-09-09T13:55:53;28.40;49.70
67027;DHT22;53933;52.142;11.738;2022-09-09T13:58:19;28.20;49.40
67027;DHT22;53933;52.142;11.738;2022-09-09T14:00:48;28.20;50.10
67027;DHT22;53933;52.142;11.738;2022-09-09T14:03:15;28.20;49.70
67027;DHT22;53933;52.142;11.738;2022-09-09T14:05:41;28.20;50.00
67027;DHT22;53933;52.142;11.738;2022-09-09T14:08:17;28.20;50.70
67027;DHT22;53933;52.142;11.738;2022-09-09T14:10:46;28.20;51.40
67027;DHT22;53933;52.142;11.738;2022-09-09T14:13:14;28.30;51.20
67027;DHT22;53933;52.142;11.738;2022-09-09T14:15:41;28.30;51.40
67027;DHT22;53933;52.142;11.738;2022-09-09T14:18:10;28.30;51.40
67027;DHT22;53933;52.142;11.738;2022-09-09T14:20:37;28.30;49.90
67027;DHT22;53933;52.142;11.738;2022-09-09T14:23:04;28.40;48.70
67027;DHT22;53933;52.142;11.738;2022-09-09T14:25:30;28.40;48.20
67027;DHT22;53933;52.142;11.738;2022-09-09T14:27:58;28.30;48.30
67027;DHT22;53933;52.142;11.738;2022-09-09T14:30:27;28.30;49.50
67027;DHT22;53933;52.142;11.738;2022-09-09T14:32:53;28.30;50.60
67027;DHT22;53933;52.142;11.738;2022-09-09T14:35:20;28.20;50.50
67027;DHT22;53933;52.142;11.738;2022-09-09T14:37:47;28.10;50.50
67027;DHT22;53933;52.142;11.738;2022-09-09T14:40:14;28.00;50.50
67027;DHT22;53933;52.142;11.738;2022-09-09T14:42:41;28.10;51.10
67027;DHT22;53933;52.142;11.738;2022-09-09T14:45:09;28.10;51.30
67027;DHT22;53933;52.142;11.738;2022-09-09T14:47:37;28.10;50.90
67027;DHT22;53933;52.142;11.738;2022-09-09T14:50:05;28.00;49.80
67027;DHT22;53933;52.142;11.738;2022-09-09T14:52:32;28.00;50.60
67027;DHT22;53933;52.142;11.738;2022-09-09T14:54:58;28.00;50.20
67027;DHT22;53933;52.142;11.738;2022-09-09T14:57:25;28.00;49.30
67027;DHT22;53933;52.142;11.738;2022-09-09T14:59:51;28.00;50.10
67027;DHT22;53933;52.142;11.738;2022-09-09T15:02:18;27.90;48.80
67027;DHT22;53933;52.142;11.738;2022-09-09T15:04:46;27.80;48.60
67027;DHT22;53933;52.142;11.738;2022-09-09T15:07:15;27.80;47.70
67027;DHT22;53933;52.142;11.738;2022-09-09T15:09:41;27.70;47.90
67027;DHT22;53933;52.142;11.738;2022-09-09T15:12:08;27.60;47.70
67027;DHT22;53933;52.142;11.738;2022-09-09T15:14:35;27.60;47.90
67027;DHT22;53933;52.142;11.738;2022-09-09T15:17:02;27.60;46.50
67027;DHT22;53933;52.142;11.738;2022-09-09T15:19:28;27.40;47.50
67027;DHT22;53933;52.142;11.738;2022-09-09T15:21:56;27.40;47.90
67027;DHT22;53933;52.142;11.738;2022-09-09T15:24:23;27.40;47.70
67027;DHT22;53933;52.142;11.738;2022-09-09T15:26:51;27.40;47.50
67027;DHT22;53933;52.142;11.738;2022-09-09T15:29:19;27.30;47.90
67027;DHT22;53933;52.142;11.738;2022-09-09T15:31:45;27.10;47.60
67027;DHT22;53933;52.142;11.738;2022-09-09T15:34:12;27.00;47.50
67027;DHT22;53933;52.142;11.738;2022-09-09T15:36:41;26.90;47.10
67027;DHT22;53933;52.142;11.738;2022-09-09T15:39:10;27.00;47.80